Time;durP1;ratioP1;P1;durP2;ratioP2;P2;SDS_P1;SDS_P2;PMS_P1;PMS_P2;Temp;Humidity;BMP_temperature;BMP_pressure;BME280_temperature;BME280_humidity;BME280_pressure;Samples;Min_cycle;Max_cycle;Signal;HPM_P1;HPM_P2
2021/08/05 00:01:51;;;;;;;17.23;15.82;;;14.30;91.80;;;;;;5047701;29;20045;-72
2021/08/05 00:04:23;;;;;;;17.55;16.05;;;14.40;91.40;;;;;;5050466;29;20053;-71
2021/08/05 00:06:55;;;;;;;17.00;15.77;;;14.40;91.30;;;;;;5031816;29;20658;-71
2021/08/05 00:09:27;;;;;;;17.10;15.90;;;14.40;91.50;;;;;;5044772;29;20139;-71
2021/08/05 00:11:58;;;;;;;17.38;16.17;;;14.40;91.20;;;;;;5035265;29;20455;-71
2021/08/05 00:14:30;;;;;;;18.10;16.80;;;14.40;91.50;;;;;;5043974;29;20132;-72
2021/08/05 00:17:02;;;;;;;17.67;16.10;;;14.40;91.60;;;;;;5050866;29;20124;-73
2021/08/05 00:19:34;;;;;;;17.73;16.42;;;14.40;91.40;;;;;;5048609;29;20077;-71
2021/08/05 00:22:06;;;;;;;17.60;16.40;;;14.40;91.30;;;;;;5048460;29;20072;-71
2021/08/05 00:24:38;;;;;;;17.45;16.25;;;14.40;91.20;;;;;;5048843;29;20160;-73
2021/08/05 00:27:10;;;;;;;17.73;16.27;;;14.40;91.00;;;;;;5049523;29;20053;-71
2021/08/05 00:29:42;;;;;;;18.15;16.95;;;14.40;91.20;;;;;;5023200;29;20135;-71
2021/08/05 00:32:14;;;;;;;17.23;16.02;;;14.50;91.50;;;;;;5048407;29;20076;-72
2021/08/05 00:34:46;;;;;;;18.00;16.80;;;14.40;91.40;;;;;;5021036;29;20044;-74
2021/08/05 00:37:18;;;;;;;18.70;17.08;;;14.40;91.40;;;;;;5031328;29;20049;-73
2021/08/05 00:39:50;;;;;;;18.35;17.10;;;14.40;91.10;;;;;;5037717;29;20455;-73
2021/08/05 00:42:22;;;;;;;17.75;16.45;;;14.40;91.20;;;;;;5030859;29;20165;-72
2021/08/05 00:44:55;;;;;;;17.65;16.45;;;14.40;91.00;;;;;;5037369;29;20494;-72
2021/08/05 00:47:28;;;;;;;17.15;15.95;;;14.40;91.20;;;;;;5046538;29;20049;-72
2021/08/05 00:50:01;;;;;;;17.80;16.50;;;14.40;91.20;;;;;;5030120;29;20056;-72
2021/08/05 00:52:33;;;;;;;17.60;16.40;;;14.50;92.30;;;;;;5045679;29;20148;-73
2021/08/05 00:55:05;;;;;;;17.67;16.38;;;14.40;91.40;;;;;;5046856;29;20132;-72
2021/08/05 00:57:37;;;;;;;17.90;16.58;;;14.50;91.20;;;;;;5045240;29;20150;-72
2021/08/05 01:00:11;;;;;;;17.98;16.60;;;14.50;91.20;;;;;;5048739;29;20048;-73
2021/08/05 01:02:52;;;;;;;17.40;16.10;;;14.50;91.40;;;;;;5038454;29;20052;-72
2021/08/05 01:05:29;;;;;;;18.30;17.00;;;14.50;91.60;;;;;;5043947;29;20275;-72
2021/08/05 01:08:11;;;;;;;17.65;16.38;;;14.50;91.70;;;;;;5046438;29;20135;-73
2021/08/05 01:10:54;;;;;;;18.10;16.80;;;14.40;91.20;;;;;;5048764;29;20052;-76
2021/08/05 01:13:40;;;;;;;18.73;17.42;;;14.50;91.50;;;;;;5029478;29;20056;-72
2021/08/05 01:16:15;;;;;;;18.60;17.27;;;14.50;91.60;;;;;;5050005;29;20118;-73
2021/08/05 01:18:50;;;;;;;18.40;17.10;;;14.50;91.60;;;;;;5040035;29;20100;-73
2021/08/05 01:21:24;;;;;;;18.73;17.42;;;14.40;91.50;;;;;;5037897;29;20052;-71
2021/08/05 01:24:04;;;;;;;18.77;17.27;;;14.40;91.50;;;;;;5029735;29;20135;-70
2021/08/05 01:26:48;;;;;;;18.13;16.88;;;14.40;92.00;;;;;;5023401;29;20131;-72
2021/08/05 01:29:34;;;;;;;18.67;17.38;;;14.40;91.90;;;;;;5030519;29;20061;-71
2021/08/05 01:32:07;;;;;;;18.95;17.60;;;14.40;92.20;;;;;;5034582;29;20065;-71
2021/08/05 01:34:39;;;;;;;18.90;17.60;;;14.40;91.70;;;;;;5030789;29;20143;-70
2021/08/05 01:37:12;;;;;;;19.08;17.77;;;14.40;91.90;;;;;;5042346;29;20134;-70
2021/08/05 01:39:44;;;;;;;18.30;17.10;;;14.40;92.00;;;;;;5042059;29;20125;-70
2021/08/05 01:42:20;;;;;;;19.00;17.60;;;14.40;92.20;;;;;;5035083;29;20540;-70
2021/08/05 01:44:53;;;;;;;19.38;18.08;;;14.40;92.00;;;;;;5032923;29;20052;-71
2021/08/05 01:47:26;;;;;;;18.83;17.52;;;14.40;92.10;;;;;;5031406;29;20065;-71
2021/08/05 01:49:59;;;;;;;19.25;17.95;;;14.40;91.70;;;;;;5033124;29;20054;-71
2021/08/05 01:52:31;;;;;;;18.50;17.30;;;14.40;91.60;;;;;;5037110;29;20143;-71
2021/08/05 01:55:07;;;;;;;18.83;17.52;;;14.40;91.90;;;;;;5023477;29;20100;-73
2021/08/05 01:57:39;;;;;;;18.52;17.27;;;14.40;91.50;;;;;;5042628;29;20066;-71
2021/08/05 02:00:12;;;;;;;18.55;17.25;;;14.40;91.70;;;;;;5038373;29;20060;-71
2021/08/05 02:02:45;;;;;;;18.35;17.15;;;14.40;91.40;;;;;;5052929;29;20041;-69
2021/08/05 02:05:32;;;;;;;18.42;17.23;;;14.40;91.50;;;;;;5041056;29;20049;-70
2021/08/05 02:08:11;;;;;;;18.30;17.10;;;14.40;91.40;;;;;;5043841;29;20046;-71
2021/08/05 02:10:44;;;;;;;18.25;17.05;;;14.40;91.20;;;;;;5037633;29;20045;-71
2021/08/05 02:13:30;;;;;;;18.52;17.13;;;14.40;91.30;;;;;;5034361;29;20045;-72
2021/08/05 02:16:06;;;;;;;18.10;16.90;;;14.40;91.00;;;;;;5040594;29;20065;-72
2021/08/05 02:18:43;;;;;;;17.88;16.67;;;14.30;90.90;;;;;;5051750;29;20053;-70
2021/08/05 02:21:18;;;;;;;18.20;17.00;;;14.30;91.00;;;;;;5038561;29;20049;-71
2021/08/05 02:23:55;;;;;;;17.83;16.63;;;14.30;90.80;;;;;;5050537;29;20041;-73
2021/08/05 02:26:28;;;;;;;17.70;16.38;;;14.30;90.80;;;;;;5050095;29;20045;-70
2021/08/05 02:29:01;;;;;;;17.40;16.30;;;14.30;90.80;;;;;;5037522;29;20041;-71
2021/08/05 02:31:36;;;;;;;17.90;16.70;;;14.30;90.80;;;;;;5021963;29;20049;-72
2021/08/05 02:34:09;;;;;;;17.30;16.20;;;14.30;90.60;;;;;;5053883;29;20598;-71
2021/08/05 02:36:42;;;;;;;17.73;16.52;;;14.20;90.40;;;;;;5049961;29;20077;-71
2021/08/05 02:39:14;;;;;;;18.15;16.95;;;14.20;90.40;;;;;;5050877;29;20056;-72
2021/08/05 02:41:50;;;;;;;17.90;16.70;;;14.20;90.30;;;;;;5050033;29;20048;-72
2021/08/05 02:44:23;;;;;;;17.98;16.77;;;14.20;90.40;;;;;;5040907;29;20048;-72
2021/08/05 02:46:56;;;;;;;17.88;16.67;;;14.10;90.30;;;;;;5047192;29;20044;-72
2021/08/05 02:49:32;;;;;;;18.00;16.80;;;14.20;90.40;;;;;;5041430;29;20048;-71
2021/08/05 02:52:05;;;;;;;17.17;16.08;;;14.20;90.30;;;;;;5034219;29;20676;-72
2021/08/05 02:54:37;;;;;;;17.58;16.38;;;14.10;90.30;;;;;;5051030;29;20049;-72
2021/08/05 02:57:09;;;;;;;17.58;16.38;;;14.10;90.40;;;;;;5049304;29;20049;-72
2021/08/05 02:59:42;;;;;;;17.00;15.90;;;14.10;90.50;;;;;;5043100;29;20495;-70
2021/08/05 03:02:15;;;;;;;16.75;15.65;;;14.10;90.50;;;;;;5041559;29;20049;-71
2021/08/05 03:04:48;;;;;;;16.77;15.68;;;14.00;90.60;;;;;;5049416;29;20037;-73
2021/08/05 03:07:20;;;;;;;16.92;15.73;;;14.10;90.60;;;;;;5051526;29;20047;-71
2021/08/05 03:09:53;;;;;;;16.27;15.18;;;14.10;90.60;;;;;;5049332;29;20059;-71
2021/08/05 03:12:24;;;;;;;16.67;15.35;;;14.00;90.60;;;;;;5050075;29;20084;-71
2021/08/05 03:14:57;;;;;;;16.70;15.50;;;14.10;90.80;;;;;;5048960;29;20045;-72
2021/08/05 03:17:29;;;;;;;16.73;15.63;;;14.10;90.90;;;;;;5051096;29;20147;-73
2021/08/05 03:20:00;;;;;;;16.65;15.55;;;14.00;90.80;;;;;;5053293;29;20064;-73
2021/08/05 03:22:33;;;;;;;16.55;15.45;;;14.00;90.90;;;;;;5048295;29;20052;-73
2021/08/05 03:25:05;;;;;;;16.45;15.23;;;14.00;90.90;;;;;;5047800;29;20120;-72
2021/08/05 03:27:38;;;;;;;16.00;14.90;;;14.00;90.90;;;;;;5053452;29;20464;-72
2021/08/05 03:30:11;;;;;;;16.20;15.10;;;14.00;91.10;;;;;;5039353;29;20051;-72
2021/08/05 03:32:43;;;;;;;16.63;15.52;;;14.00;91.00;;;;;;5050925;29;20052;-71
2021/08/05 03:35:15;;;;;;;16.88;15.68;;;13.90;91.10;;;;;;5049442;29;20056;-72
2021/08/05 03:37:47;;;;;;;16.88;15.68;;;13.90;91.00;;;;;;5051543;29;20112;-72
2021/08/05 03:40:19;;;;;;;17.48;16.27;;;13.90;91.00;;;;;;5050039;29;20427;-71
2021/08/05 03:42:51;;;;;;;17.25;16.05;;;13.90;91.00;;;;;;5048498;29;20073;-72
2021/08/05 03:45:23;;;;;;;16.88;15.77;;;13.90;91.10;;;;;;5049676;29;20076;-71
2021/08/05 03:47:55;;;;;;;17.40;16.20;;;13.90;91.20;;;;;;5049781;29;20040;-71
2021/08/05 03:50:27;;;;;;;16.83;15.73;;;13.90;91.20;;;;;;5049507;29;20141;-71
2021/08/05 03:52:59;;;;;;;17.50;16.10;;;13.90;91.10;;;;;;5048582;29;20053;-72
2021/08/05 03:55:31;;;;;;;17.20;16.10;;;14.00;90.90;;;;;;5050572;29;20068;-73
2021/08/05 03:58:06;;;;;;;17.40;16.20;;;14.00;90.80;;;;;;5052873;29;20459;-72
2021/08/05 04:00:41;;;;;;;17.13;15.93;;;14.00;90.90;;;;;;5046854;29;20072;-73
2021/08/05 04:03:13;;;;;;;17.27;16.13;;;14.00;90.90;;;;;;5049796;29;20045;-71
2021/08/05 04:05:45;;;;;;;17.73;16.45;;;14.00;90.70;;;;;;5046868;29;20045;-71
2021/08/05 04:08:17;;;;;;;17.75;16.45;;;14.00;90.80;;;;;;5046253;29;20135;-72
2021/08/05 04:10:49;;;;;;;18.20;16.90;;;14.00;90.90;;;;;;5047507;29;20123;-72
2021/08/05 04:13:20;;;;;;;17.67;16.38;;;14.00;91.10;;;;;;5043130;29;20140;-71
2021/08/05 04:15:52;;;;;;;17.58;16.38;;;14.00;90.80;;;;;;5044302;29;20103;-72
2021/08/05 04:18:24;;;;;;;17.17;15.98;;;14.00;90.80;;;;;;5053240;29;20040;-73
2021/08/05 04:20:56;;;;;;;16.92;15.75;;;14.00;90.80;;;;;;5038066;29;20101;-72
2021/08/05 04:23:28;;;;;;;16.98;15.60;;;14.10;91.10;;;;;;5045256;29;20530;-72
2021/08/05 04:26:00;;;;;;;16.65;15.55;;;14.00;90.70;;;;;;5049056;29;20116;-72
2021/08/05 04:28:32;;;;;;;16.88;15.68;;;14.10;91.10;;;;;;5051907;29;20052;-72
2021/08/05 04:31:04;;;;;;;16.95;15.80;;;14.10;91.00;;;;;;5048330;29;20723;-72
2021/08/05 04:33:36;;;;;;;16.95;15.82;;;14.10;91.20;;;;;;5046983;29;20037;-72
2021/08/05 04:36:08;;;;;;;16.70;15.60;;;14.00;90.90;;;;;;5045730;29;20049;-73
2021/08/05 04:38:40;;;;;;;16.20;15.10;;;14.00;91.30;;;;;;5050182;29;20077;-72
2021/08/05 04:41:11;;;;;;;15.95;14.85;;;14.00;90.50;;;;;;5045500;29;20354;-72
2021/08/05 04:43:44;;;;;;;16.80;15.70;;;14.10;90.70;;;;;;5048871;29;20406;-73
2021/08/05 04:46:15;;;;;;;16.38;15.27;;;14.10;90.90;;;;;;5047718;29;20104;-73
2021/08/05 04:48:48;;;;;;;16.13;15.02;;;14.10;90.90;;;;;;5049021;29;20037;-73
2021/08/05 04:51:19;;;;;;;16.63;15.43;;;14.10;90.80;;;;;;5047719;29;20504;-71
2021/08/05 04:53:51;;;;;;;17.08;15.88;;;14.10;90.80;;;;;;5046100;29;20518;-71
2021/08/05 04:56:23;;;;;;;16.52;15.32;;;14.10;91.00;;;;;;5034065;29;20135;-73
2021/08/05 04:58:55;;;;;;;16.35;15.15;;;14.10;90.80;;;;;;5045912;29;20049;-73
2021/08/05 05:01:27;;;;;;;16.15;15.05;;;14.20;91.00;;;;;;5047251;29;20052;-71
2021/08/05 05:03:59;;;;;;;17.02;15.80;;;14.20;91.00;;;;;;5047587;29;20048;-72
2021/08/05 05:06:31;;;;;;;16.33;15.23;;;14.20;90.90;;;;;;5048415;29;20069;-71
2021/08/05 05:09:03;;;;;;;16.40;15.30;;;14.20;90.90;;;;;;5049075;29;20068;-71
2021/08/05 05:11:35;;;;;;;16.10;15.00;;;14.20;90.90;;;;;;5048193;29;20658;-72
2021/08/05 05:14:07;;;;;;;17.15;15.95;;;14.20;91.60;;;;;;5047739;29;20072;-72
2021/08/05 05:16:39;;;;;;;16.85;15.65;;;14.20;90.80;;;;;;5047646;29;20128;-71
2021/08/05 05:19:11;;;;;;;17.33;16.13;;;14.20;90.70;;;;;;5044489;29;20049;-73
2021/08/05 05:21:42;;;;;;;17.00;15.80;;;14.30;90.90;;;;;;5047947;29;20503;-71
2021/08/05 05:24:14;;;;;;;17.13;15.82;;;14.30;90.90;;;;;;5047274;29;20100;-72
2021/08/05 05:26:57;;;;;;;17.50;16.17;;;14.30;91.00;;;;;;5047700;29;20504;-72
2021/08/05 05:29:29;;;;;;;16.90;15.73;;;14.30;91.00;;;;;;5048059;29;20587;-72
2021/08/05 05:32:01;;;;;;;17.20;16.00;;;14.30;90.60;;;;;;5046635;29;20041;-72
2021/08/05 05:34:34;;;;;;;17.17;16.00;;;14.30;90.70;;;;;;5046224;29;20049;-71
2021/08/05 05:37:06;;;;;;;16.95;15.65;;;14.30;90.50;;;;;;5047847;29;20080;-71
2021/08/05 05:39:38;;;;;;;18.25;16.70;;;14.30;90.60;;;;;;5048032;29;20073;-71
2021/08/05 05:42:10;;;;;;;17.00;15.80;;;14.30;91.10;;;;;;5050220;29;20052;-71
2021/08/05 05:44:42;;;;;;;16.92;15.63;;;14.30;90.90;;;;;;5046026;29;20822;-70
2021/08/05 05:47:14;;;;;;;17.00;15.80;;;14.30;91.10;;;;;;5047447;29;20045;-71
2021/08/05 05:49:46;;;;;;;16.85;15.65;;;14.30;91.10;;;;;;5050434;29;20072;-71
2021/08/05 05:52:19;;;;;;;17.48;16.27;;;14.30;91.20;;;;;;5048964;29;20048;-71
2021/08/05 05:54:51;;;;;;;17.45;16.17;;;14.30;91.40;;;;;;5048955;29;20471;-72
2021/08/05 05:57:23;;;;;;;17.65;16.35;;;14.30;91.20;;;;;;5047146;29;20144;-71
2021/08/05 05:59:54;;;;;;;17.05;15.75;;;14.40;91.10;;;;;;5046745;29;20128;-71
2021/08/05 06:02:26;;;;;;;17.42;16.23;;;14.40;90.70;;;;;;5048133;29;20483;-71
2021/08/05 06:04:58;;;;;;;17.02;15.88;;;14.40;90.90;;;;;;5043745;29;20040;-71
2021/08/05 06:07:30;;;;;;;17.00;15.77;;;14.50;90.90;;;;;;5046361;29;20072;-72
2021/08/05 06:10:03;;;;;;;16.92;15.73;;;14.60;90.70;;;;;;5032164;29;20043;-72
2021/08/05 06:12:35;;;;;;;16.95;15.52;;;14.60;90.80;;;;;;5045336;29;20048;-72
2021/08/05 06:15:08;;;;;;;17.38;15.98;;;14.60;90.50;;;;;;5044892;29;20076;-71
2021/08/05 06:17:41;;;;;;;17.30;15.93;;;14.70;90.20;;;;;;5049537;29;20072;-73
2021/08/05 06:20:17;;;;;;;17.42;15.98;;;14.70;90.80;;;;;;5046140;29;20045;-70
2021/08/05 06:22:49;;;;;;;16.60;15.40;;;14.70;91.10;;;;;;5049044;29;20047;-70
2021/08/05 06:25:21;;;;;;;16.75;15.55;;;14.70;91.60;;;;;;5046468;29;20136;-70
2021/08/05 06:27:53;;;;;;;16.33;15.18;;;14.80;91.20;;;;;;5048433;29;20046;-71
2021/08/05 06:30:25;;;;;;;16.27;15.18;;;14.80;91.20;;;;;;5050418;29;20124;-70
2021/08/05 06:32:57;;;;;;;17.10;15.90;;;14.80;90.40;;;;;;5054484;29;20459;-71
2021/08/05 06:35:29;;;;;;;17.23;16.00;;;14.80;90.90;;;;;;5047888;29;20410;-72
2021/08/05 06:38:01;;;;;;;17.45;16.25;;;14.80;90.30;;;;;;5051738;29;20049;-70
2021/08/05 06:40:33;;;;;;;17.83;16.63;;;14.80;90.40;;;;;;5048647;29;20059;-70
2021/08/05 06:43:05;;;;;;;17.45;16.25;;;14.80;89.50;;;;;;5047779;29;20059;-70
2021/08/05 06:45:38;;;;;;;17.05;15.85;;;14.80;90.10;;;;;;5037999;29;20475;-70
2021/08/05 06:48:10;;;;;;;16.73;15.43;;;14.80;89.80;;;;;;5049127;29;20077;-69
2021/08/05 06:50:42;;;;;;;16.33;15.13;;;14.80;90.20;;;;;;5049343;29;20917;-69
2021/08/05 06:53:14;;;;;;;16.83;15.52;;;14.80;90.80;;;;;;5046081;29;20763;-71
2021/08/05 06:55:47;;;;;;;16.33;15.13;;;14.80;90.80;;;;;;5048052;29;20049;-70
2021/08/05 06:58:22;;;;;;;16.73;15.52;;;14.90;90.60;;;;;;5050442;29;20139;-70
2021/08/05 07:00:54;;;;;;;16.83;15.63;;;14.90;90.40;;;;;;5051993;29;20065;-70
2021/08/05 07:03:27;;;;;;;16.52;15.18;;;14.90;90.40;;;;;;5048377;29;20044;-70
2021/08/05 07:05:59;;;;;;;16.52;15.18;;;14.90;90.50;;;;;;5051145;29;20049;-70
2021/08/05 07:08:31;;;;;;;16.33;15.23;;;14.90;90.10;;;;;;5051681;29;20064;-71
2021/08/05 07:11:03;;;;;;;15.82;14.63;;;14.90;90.70;;;;;;5050920;29;20088;-71
2021/08/05 07:13:35;;;;;;;16.05;14.93;;;14.90;90.00;;;;;;5035471;29;20503;-69
2021/08/05 07:16:07;;;;;;;15.55;14.32;;;14.90;90.60;;;;;;5053771;29;20052;-70
2021/08/05 07:18:39;;;;;;;16.48;15.27;;;15.00;90.90;;;;;;5035278;29;20543;-71
2021/08/05 07:21:14;;;;;;;15.75;14.65;;;15.10;90.70;;;;;;5051210;29;20057;-70
2021/08/05 07:23:46;;;;;;;15.32;14.23;;;15.10;89.20;;;;;;5049425;29;20049;-69
2021/08/05 07:26:20;;;;;;;14.90;13.90;;;15.00;90.00;;;;;;5050116;29;20045;-72
2021/08/05 07:28:52;;;;;;;14.70;13.70;;;15.00;90.60;;;;;;5051382;29;20097;-71
2021/08/05 07:31:24;;;;;;;14.60;13.60;;;15.00;89.70;;;;;;5052822;29;20515;-72
2021/08/05 07:33:56;;;;;;;15.23;14.20;;;15.00;90.20;;;;;;5048424;29;20059;-70
2021/08/05 07:36:28;;;;;;;15.18;14.13;;;15.00;89.90;;;;;;5048859;29;20053;-69
2021/08/05 07:39:00;;;;;;;16.02;14.85;;;15.10;90.70;;;;;;5047126;29;20076;-69
2021/08/05 07:41:32;;;;;;;16.27;15.07;;;15.10;90.80;;;;;;5039258;29;20144;-72
2021/08/05 07:44:06;;;;;;;15.63;14.52;;;15.20;89.70;;;;;;5022203;29;20056;-71
2021/08/05 07:46:39;;;;;;;14.93;13.93;;;15.30;89.90;;;;;;5050764;29;20136;-69
2021/08/05 07:49:11;;;;;;;17.05;15.95;;;15.40;88.60;;;;;;5046498;29;20054;-69
2021/08/05 07:51:43;;;;;;;17.15;15.95;;;15.50;88.80;;;;;;5047124;29;20060;-69
2021/08/05 07:54:15;;;;;;;18.08;16.58;;;15.50;88.80;;;;;;5047652;29;20048;-73
2021/08/05 07:56:47;;;;;;;17.98;16.67;;;15.50;87.40;;;;;;5047715;29;20056;-71
2021/08/05 07:59:19;;;;;;;17.95;16.75;;;15.60;89.50;;;;;;5040020;29;20806;-70
2021/08/05 08:01:51;;;;;;;18.30;17.10;;;15.60;88.90;;;;;;5046451;29;20057;-70
2021/08/05 08:04:23;;;;;;;18.40;16.98;;;15.80;89.00;;;;;;5049510;29;20048;-69
2021/08/05 08:06:55;;;;;;;18.17;16.95;;;15.80;88.90;;;;;;5048856;29;20467;-70
2021/08/05 08:09:27;;;;;;;17.88;16.67;;;15.80;88.70;;;;;;5048263;29;20459;-70
2021/08/05 08:11:59;;;;;;;18.00;16.80;;;15.90;89.50;;;;;;5050489;29;20044;-70
2021/08/05 08:14:31;;;;;;;17.88;16.67;;;16.00;89.10;;;;;;5048004;29;20053;-70
2021/08/05 08:17:03;;;;;;;18.10;16.88;;;16.10;87.90;;;;;;5051692;29;20048;-70
2021/08/05 08:19:39;;;;;;;18.50;17.20;;;16.20;88.90;;;;;;5047059;29;20073;-71
2021/08/05 08:22:11;;;;;;;18.38;17.08;;;16.40;88.50;;;;;;5051179;29;20463;-72
2021/08/05 08:24:43;;;;;;;18.05;16.75;;;16.40;87.80;;;;;;5049428;29;20109;-69
2021/08/05 08:27:15;;;;;;;18.63;17.33;;;16.50;88.30;;;;;;5053107;29;20124;-69
2021/08/05 08:29:47;;;;;;;18.30;17.00;;;16.60;87.00;;;;;;5048050;29;20052;-69
2021/08/05 08:32:19;;;;;;;17.73;16.52;;;16.60;87.50;;;;;;5038352;29;20837;-69
2021/08/05 08:34:51;;;;;;;17.48;16.20;;;16.70;87.10;;;;;;5046431;29;20140;-69
2021/08/05 08:37:23;;;;;;;17.67;16.48;;;16.70;87.00;;;;;;5048481;29;20052;-69
2021/08/05 08:39:54;;;;;;;17.95;16.75;;;16.80;86.70;;;;;;5051954;29;20049;-70
2021/08/05 08:42:27;;;;;;;17.85;16.65;;;16.80;86.80;;;;;;5049258;29;20753;-69
2021/08/05 08:44:59;;;;;;;17.48;16.27;;;16.80;85.80;;;;;;5049140;29;20128;-70
2021/08/05 08:47:33;;;;;;;17.90;16.67;;;16.70;85.80;;;;;;5047513;29;20127;-68
2021/08/05 08:50:06;;;;;;;18.50;17.15;;;16.80;86.80;;;;;;5038359;29;20056;-70
2021/08/05 08:52:43;;;;;;;18.52;17.20;;;16.80;86.10;;;;;;5032372;29;20085;-69
2021/08/05 08:55:17;;;;;;;17.98;16.77;;;16.80;86.10;;;;;;5046322;29;20628;-69
2021/08/05 08:57:51;;;;;;;16.55;15.45;;;16.80;86.80;;;;;;5047238;29;20496;-69
2021/08/05 09:00:23;;;;;;;16.92;15.73;;;16.90;87.10;;;;;;5043539;29;20510;-69
2021/08/05 09:02:56;;;;;;;16.58;15.48;;;16.90;87.20;;;;;;5046302;29;20503;-69
2021/08/05 09:05:29;;;;;;;16.98;15.88;;;16.90;85.20;;;;;;5047372;29;20041;-70
2021/08/05 09:08:03;;;;;;;17.08;15.93;;;16.90;86.90;;;;;;5049526;29;20116;-70
2021/08/05 09:10:34;;;;;;;17.77;16.58;;;16.90;86.50;;;;;;5039200;29;20129;-70
2021/08/05 09:13:08;;;;;;;17.65;16.40;;;16.80;87.50;;;;;;5046960;29;20056;-69
2021/08/05 09:15:42;;;;;;;18.35;17.02;;;16.90;87.50;;;;;;5049467;29;20104;-70
2021/08/05 09:18:35;;;;;;;16.45;15.35;;;16.90;87.50;;;;;;5046210;29;20048;-69
2021/08/05 09:21:15;;;;;;;17.95;16.65;;;16.90;87.00;;;;;;5044780;29;20057;-69
2021/08/05 09:23:50;;;;;;;21.15;19.55;;;16.90;87.10;;;;;;5047424;29;20824;-69
2021/08/05 09:26:32;;;;;;;17.25;15.98;;;17.00;86.40;;;;;;5047118;29;20535;-69
2021/08/05 09:29:17;;;;;;;18.55;17.25;;;17.10;87.00;;;;;;5044050;29;20040;-71
2021/08/05 09:31:54;;;;;;;17.63;16.42;;;17.20;87.80;;;;;;5038962;29;20519;-69
2021/08/05 09:34:33;;;;;;;17.23;16.08;;;17.40;87.30;;;;;;5047075;29;20059;-69
2021/08/05 09:37:08;;;;;;;17.73;16.52;;;17.50;86.10;;;;;;5046673;29;20829;-70
2021/08/05 09:39:45;;;;;;;18.17;16.98;;;17.70;85.40;;;;;;5047248;29;20705;-71
2021/08/05 09:42:17;;;;;;;17.98;16.67;;;17.90;85.40;;;;;;5045314;29;20049;-69
2021/08/05 09:44:49;;;;;;;19.35;18.05;;;18.00;85.50;;;;;;5049296;29;20119;-69
2021/08/05 09:47:22;;;;;;;17.90;16.70;;;18.00;85.00;;;;;;5052316;29;20094;-68
2021/08/05 09:49:57;;;;;;;17.85;16.65;;;18.00;84.70;;;;;;5048785;29;20104;-70
2021/08/05 09:52:31;;;;;;;17.42;16.23;;;18.00;82.80;;;;;;5035166;29;20135;-67
2021/08/05 09:55:06;;;;;;;16.92;15.73;;;18.10;84.00;;;;;;5045876;29;20135;-68
2021/08/05 09:57:41;;;;;;;17.77;16.58;;;18.00;83.00;;;;;;5034071;29;20433;-68
2021/08/05 10:00:19;;;;;;;17.25;16.05;;;18.00;83.90;;;;;;5033195;29;20059;-69
2021/08/05 10:02:52;;;;;;;17.83;16.63;;;18.10;84.60;;;;;;5047586;29;20064;-68
2021/08/05 10:05:26;;;;;;;17.80;16.60;;;18.10;83.20;;;;;;5033712;29;20105;-69
2021/08/05 10:07:59;;;;;;;17.77;16.42;;;18.20;82.50;;;;;;5054608;29;20064;-71
2021/08/05 10:10:52;;;;;;;18.45;17.25;;;18.30;84.00;;;;;;5053582;29;20064;-69
2021/08/05 10:13:38;;;;;;;18.27;16.98;;;18.30;84.10;;;;;;5051810;29;20131;-69
2021/08/05 10:16:12;;;;;;;18.35;17.15;;;18.50;84.40;;;;;;5050689;29;20510;-68
2021/08/05 10:18:44;;;;;;;18.90;17.60;;;18.60;83.10;;;;;;5049155;29;20427;-70
2021/08/05 10:21:16;;;;;;;19.05;17.60;;;18.90;81.70;;;;;;5049804;29;20117;-69
2021/08/05 10:23:48;;;;;;;18.83;17.50;;;19.10;82.50;;;;;;5040891;29;20485;-69
2021/08/05 10:26:21;;;;;;;18.33;17.13;;;19.10;81.90;;;;;;5051238;29;20127;-70
2021/08/05 10:28:53;;;;;;;18.27;17.08;;;19.10;81.90;;;;;;5052513;29;20582;-70
2021/08/05 10:31:25;;;;;;;20.35;18.80;;;19.00;79.80;;;;;;5050255;29;20045;-68
2021/08/05 10:33:57;;;;;;;19.48;18.08;;;18.90;80.00;;;;;;5048262;29;20052;-71
2021/08/05 10:36:29;;;;;;;17.98;16.77;;;19.00;78.60;;;;;;5046761;29;20080;-70
2021/08/05 10:39:01;;;;;;;19.08;17.67;;;19.00;79.20;;;;;;5039782;29;20053;-71
2021/08/05 10:41:33;;;;;;;18.00;16.70;;;19.10;80.30;;;;;;5048565;29;20140;-71
2021/08/05 10:44:07;;;;;;;18.20;17.00;;;19.00;80.30;;;;;;5050836;29;20076;-70
2021/08/05 10:46:41;;;;;;;17.50;16.30;;;18.90;80.10;;;;;;5050567;29;20053;-70
2021/08/05 10:49:13;;;;;;;18.08;16.88;;;18.90;79.00;;;;;;5050722;29;20139;-70
2021/08/05 10:51:45;;;;;;;19.08;17.77;;;18.90;78.80;;;;;;5047009;29;20044;-71
2021/08/05 10:54:47;;;;;;;18.60;17.27;;;18.90;77.60;;;;;;5048436;29;20135;-72
2021/08/05 10:57:21;;;;;;;17.83;16.63;;;19.10;78.30;;;;;;5044344;29;20061;-72
2021/08/05 11:00:08;;;;;;;17.80;16.60;;;19.10;76.00;;;;;;5046830;29;20044;-69
2021/08/05 11:02:46;;;;;;;17.27;16.17;;;19.20;78.70;;;;;;5048477;29;20610;-71
2021/08/05 11:05:21;;;;;;;17.70;16.50;;;19.10;79.00;;;;;;5524005;23;20130;-68
2021/08/05 11:08:09;;;;;;;17.63;16.42;;;19.10;78.90;;;;;;5050850;29;20069;-69
2021/08/05 11:10:41;;;;;;;17.60;16.40;;;19.20;79.50;;;;;;5053389;29;20049;-68
2021/08/05 11:13:16;;;;;;;18.48;17.27;;;19.40;79.50;;;;;;5055378;29;20048;-69
2021/08/05 11:15:49;;;;;;;19.42;18.13;;;19.70;76.40;;;;;;5057009;29;20131;-70
2021/08/05 11:18:22;;;;;;;18.83;17.52;;;20.10;75.80;;;;;;5057276;29;20055;-70
2021/08/05 11:20:57;;;;;;;19.08;17.58;;;20.40;75.30;;;;;;5057916;29;21504;-71
2021/08/05 11:23:35;;;;;;;18.60;17.33;;;20.50;76.00;;;;;;5041217;29;20063;-70
2021/08/05 11:26:11;;;;;;;18.90;17.60;;;20.60;72.50;;;;;;5048520;29;20525;-71
2021/08/05 11:28:46;;;;;;;19.05;17.67;;;20.80;72.60;;;;;;5057646;29;20455;-70
2021/08/05 11:31:36;;;;;;;18.95;17.65;;;21.00;71.50;;;;;;5057677;29;20045;-72
2021/08/05 11:34:12;;;;;;;17.75;16.55;;;21.00;69.90;;;;;;5051377;29;20147;-71
2021/08/05 11:36:46;;;;;;;18.20;17.00;;;20.80;71.80;;;;;;5056345;29;20064;-70
2021/08/05 11:39:26;;;;;;;19.00;17.70;;;20.70;72.90;;;;;;5054357;29;20044;-71
2021/08/05 11:42:13;;;;;;;17.93;16.73;;;20.60;73.80;;;;;;5054295;29;20586;-70
2021/08/05 11:45:01;;;;;;;17.88;16.67;;;20.50;73.90;;;;;;5053286;29;20810;-71
2021/08/05 11:47:36;;;;;;;18.70;17.40;;;20.40;74.30;;;;;;5055198;29;20076;-71
2021/08/05 11:50:19;;;;;;;19.23;17.92;;;20.40;72.40;;;;;;5054044;29;20064;-70
2021/08/05 11:53:11;;;;;;;19.40;18.10;;;20.50;74.40;;;;;;5055123;29;20096;-70
2021/08/05 11:55:47;;;;;;;18.88;17.48;;;20.70;71.90;;;;;;5051186;29;20154;-72
2021/08/05 11:58:20;;;;;;;18.63;17.40;;;20.70;71.20;;;;;;5054159;29;20085;-72
2021/08/05 12:00:53;;;;;;;19.20;17.90;;;20.80;72.50;;;;;;5054307;29;20040;-69
2021/08/05 12:03:26;;;;;;;24.17;22.10;;;21.00;70.10;;;;;;5038945;29;20533;-70
2021/08/05 12:05:58;;;;;;;19.35;18.05;;;21.30;72.10;;;;;;5052144;29;20120;-68
2021/08/05 12:08:30;;;;;;;18.77;17.48;;;21.60;68.30;;;;;;5055332;29;20546;-69
2021/08/05 12:11:01;;;;;;;19.27;17.98;;;21.80;69.20;;;;;;5051464;29;20068;-73
2021/08/05 12:13:40;;;;;;;20.95;19.45;;;21.90;69.20;;;;;;5058783;29;20040;-70
2021/08/05 12:16:12;;;;;;;19.50;18.20;;;21.90;68.40;;;;;;5056249;29;20053;-70
2021/08/05 12:18:44;;;;;;;20.05;18.65;;;22.10;69.10;;;;;;5054453;29;20132;-70
2021/08/05 12:21:17;;;;;;;19.30;18.00;;;22.30;69.30;;;;;;5054649;29;20056;-71
2021/08/05 12:23:52;;;;;;;18.83;17.52;;;22.20;66.80;;;;;;5052425;29;20044;-70
2021/08/05 12:26:35;;;;;;;18.77;17.48;;;22.20;67.50;;;;;;5053290;29;20052;-70
2021/08/05 12:29:11;;;;;;;21.02;19.52;;;22.00;67.60;;;;;;5053230;29;20044;-70
2021/08/05 12:31:44;;;;;;;19.60;18.20;;;22.10;66.60;;;;;;5052055;29;20076;-70
2021/08/05 12:34:18;;;;;;;19.58;18.17;;;22.00;69.20;;;;;;5054332;29;20059;-72
2021/08/05 12:36:51;;;;;;;20.75;19.25;;;22.20;70.00;;;;;;5050801;29;20686;-69
2021/08/05 12:39:25;;;;;;;21.27;19.73;;;22.30;68.50;;;;;;5055521;29;20092;-70
2021/08/05 12:41:59;;;;;;;19.50;18.10;;;22.20;66.00;;;;;;5055385;29;20048;-70
2021/08/05 12:44:34;;;;;;;18.60;17.30;;;21.90;66.00;;;;;;5053270;29;20037;-70
2021/08/05 12:47:07;;;;;;;18.65;17.35;;;21.70;66.60;;;;;;5055574;29;20045;-70
2021/08/05 12:49:40;;;;;;;19.08;17.77;;;21.70;69.70;;;;;;5058665;29;20032;-71
2021/08/05 12:52:15;;;;;;;19.50;18.20;;;22.00;66.50;;;;;;5056178;29;20080;-72
2021/08/05 12:54:56;;;;;;;18.70;17.33;;;22.30;67.20;;;;;;5054094;29;20493;-71
2021/08/05 12:57:34;;;;;;;19.40;18.10;;;22.50;67.00;;;;;;5053163;29;20100;-70
2021/08/05 13:00:25;;;;;;;19.40;18.10;;;22.70;68.10;;;;;;5053362;29;20056;-69
2021/08/05 13:02:59;;;;;;;18.67;17.38;;;22.90;65.10;;;;;;5054167;29;20044;-70